createdAt,value
2023-05-17T00:00:41.453Z,10.41
2023-05-17T00:03:08.099Z,10.39
2023-05-17T00:05:34.721Z,10.38
2023-05-17T00:08:01.206Z,10.37
2023-05-17T00:10:27.828Z,10.42
2023-05-17T00:12:54.295Z,10.47
2023-05-17T00:15:20.873Z,10.46
2023-05-17T00:17:47.493Z,10.52
2023-05-17T00:20:14.180Z,10.41
2023-05-17T00:22:41.067Z,10.37
2023-05-17T00:25:08.068Z,10.36
2023-05-17T00:27:34.688Z,10.25
2023-05-17T00:30:01.271Z,10.33
2023-05-17T00:32:27.813Z,10.29
2023-05-17T00:34:54.317Z,10.26
2023-05-17T00:37:20.892Z,10.21
2023-05-17T00:39:47.509Z,10.26
2023-05-17T00:42:14.582Z,10.22
2023-05-17T00:44:41.269Z,10.24
2023-05-17T00:47:07.869Z,10.27
2023-05-17T00:49:34.453Z,10.23
2023-05-17T00:52:01.091Z,10.21
2023-05-17T00:54:27.828Z,10.20
2023-05-17T00:56:57.037Z,10.31
2023-05-17T00:59:24.397Z,10.28
2023-05-17T01:01:52.353Z,10.26
2023-05-17T01:04:19.051Z,10.13
2023-05-17T01:06:46.072Z,10.16
2023-05-17T01:09:12.793Z,10.23
2023-05-17T01:12:05.541Z,10.20
2023-05-17T01:15:03.403Z,10.13
2023-05-17T01:17:33.028Z,10.08
2023-05-17T01:20:11.796Z,10.10
2023-05-17T01:23:03.387Z,10.11
2023-05-17T01:25:48.384Z,10.17
2023-05-17T01:28:16.525Z,9.98
2023-05-17T01:30:46.235Z,10.06
2023-05-17T01:33:13.046Z,9.94
2023-05-17T01:35:40.049Z,9.99
2023-05-17T01:38:06.570Z,9.97
2023-05-17T01:40:44.070Z,9.89
2023-05-17T01:43:21.703Z,9.89
2023-05-17T01:46:00.960Z,9.81
2023-05-17T01:48:41.223Z,9.81
2023-05-17T01:51:11.972Z,9.76
2023-05-17T01:53:43.033Z,9.82
2023-05-17T01:56:36.951Z,9.81
2023-05-17T01:59:04.848Z,9.89
2023-05-17T02:01:32.885Z,9.88
2023-05-17T02:03:59.475Z,9.90
2023-05-17T02:06:26.107Z,9.96
2023-05-17T02:08:52.584Z,9.97
2023-05-17T02:11:19.146Z,9.90
2023-05-17T02:13:45.882Z,9.86
2023-05-17T02:16:12.374Z,9.80
2023-05-17T02:18:40.559Z,9.80
2023-05-17T02:21:07.214Z,9.80
2023-05-17T02:23:33.684Z,9.81
2023-05-17T02:26:00.214Z,9.84
2023-05-17T02:28:27.539Z,9.83
2023-05-17T02:30:54.713Z,9.72
2023-05-17T02:33:21.350Z,9.81
2023-05-17T02:35:49.560Z,9.78
2023-05-17T02:38:16.401Z,9.89
2023-05-17T02:40:42.900Z,9.82
2023-05-17T02:43:09.406Z,9.73
2023-05-17T02:45:35.991Z,9.77
2023-05-17T02:48:02.557Z,9.71
2023-05-17T02:50:29.126Z,9.73
2023-05-17T02:52:55.615Z,9.68
2023-05-17T02:55:22.112Z,9.67
2023-05-17T02:57:48.628Z,9.68
2023-05-17T03:00:17.811Z,9.68
2023-05-17T03:02:44.355Z,9.66
2023-05-17T03:05:11.019Z,9.74
2023-05-17T03:07:37.794Z,9.78
2023-05-17T03:10:04.730Z,9.73
2023-05-17T03:12:31.255Z,9.73
2023-05-17T03:14:57.821Z,9.73
2023-05-17T03:17:24.555Z,9.64
2023-05-17T03:19:51.358Z,9.65
2023-05-17T03:22:17.970Z,9.70
2023-05-17T03:24:44.512Z,9.64
2023-05-17T03:27:11.059Z,9.64
2023-05-17T03:29:37.728Z,9.58
2023-05-17T03:32:04.623Z,9.71
2023-05-17T03:34:31.170Z,9.66
2023-05-17T03:36:57.679Z,9.64
2023-05-17T03:39:24.211Z,9.59
2023-05-17T03:41:51.212Z,9.58
2023-05-17T03:44:17.821Z,9.55
2023-05-17T03:46:44.421Z,9.55
2023-05-17T03:49:11.249Z,9.53
2023-05-17T03:51:38.921Z,9.56
2023-05-17T03:54:05.508Z,9.52
2023-05-17T03:56:32.525Z,9.46
2023-05-17T03:58:59.137Z,9.45
2023-05-17T04:01:25.773Z,9.38
2023-05-17T04:03:52.522Z,9.44
2023-05-17T04:06:19.131Z,9.42
2023-05-17T04:08:45.716Z,9.31
2023-05-17T04:11:15.207Z,9.33
2023-05-17T04:13:42.277Z,9.34
2023-05-17T04:16:10.370Z,9.28
2023-05-17T04:18:38.135Z,9.26
2023-05-17T04:21:05.780Z,9.31
2023-05-17T04:23:33.542Z,9.25
2023-05-17T04:26:00.113Z,9.26
2023-05-17T04:28:27.116Z,9.26
2023-05-17T04:30:54.287Z,9.24
2023-05-17T04:33:20.983Z,9.23
2023-05-17T04:35:47.789Z,9.31
2023-05-17T04:38:14.335Z,9.37
2023-05-17T04:40:40.955Z,9.41
2023-05-17T04:43:07.490Z,9.37
2023-05-17T04:45:34.241Z,9.40
2023-05-17T04:51:39.362Z,9.31
2023-05-17T04:54:10.883Z,9.39
2023-05-17T04:56:37.417Z,9.40
2023-05-17T04:59:03.929Z,9.51
2023-05-17T05:01:31.017Z,9.44
2023-05-17T05:03:58.582Z,9.46
2023-05-17T05:06:25.301Z,9.58
2023-05-17T05:08:52.592Z,9.73
2023-05-17T05:11:19.530Z,9.85
2023-05-17T05:13:46.265Z,9.75
2023-05-17T05:16:12.876Z,9.88
2023-05-17T05:18:39.581Z,9.97
2023-05-17T05:21:06.496Z,10.04
2023-05-17T05:23:33.038Z,9.96
2023-05-17T05:25:59.706Z,9.93
2023-05-17T05:28:26.236Z,10.09
2023-05-17T05:30:58.578Z,10.37
2023-05-17T05:33:25.949Z,10.51
2023-05-17T05:35:52.662Z,10.62
2023-05-17T05:38:19.391Z,10.97
2023-05-17T05:40:49.170Z,11.19
2023-05-17T05:43:15.987Z,11.49
2023-05-17T05:45:46.040Z,11.58
2023-05-17T05:48:13.787Z,11.80
2023-05-17T05:50:45.446Z,12.23
2023-05-17T05:53:18.600Z,12.32
2023-05-17T05:55:45.698Z,12.71
2023-05-17T05:58:12.195Z,12.96
2023-05-17T06:00:38.757Z,13.11
2023-05-17T06:03:06.227Z,13.07
2023-05-17T06:05:32.912Z,13.30
2023-05-17T06:07:59.630Z,13.54
2023-05-17T06:10:26.364Z,13.70
2023-05-17T06:12:52.962Z,13.69
2023-05-17T06:15:19.526Z,14.15
2023-05-17T06:17:46.180Z,14.21
2023-05-17T06:20:13.325Z,14.31
2023-05-17T06:22:39.873Z,14.58
2023-05-17T06:25:06.560Z,14.81
2023-05-17T06:27:33.846Z,14.86
2023-05-17T06:30:00.819Z,15.29
2023-05-17T06:32:27.511Z,15.55
2023-05-17T06:34:54.100Z,15.82
2023-05-17T06:37:20.687Z,16.12
2023-05-17T06:39:55.763Z,16.11
2023-05-17T06:42:26.483Z,16.22
2023-05-17T06:44:53.081Z,16.78
2023-05-17T06:47:19.640Z,16.70
2023-05-17T06:49:46.103Z,17.00
2023-05-17T06:52:12.677Z,17.17
2023-05-17T06:54:39.304Z,17.41
2023-05-17T06:57:05.851Z,17.60
2023-05-17T06:59:32.435Z,17.65
2023-05-17T07:02:00.305Z,17.32
2023-05-17T07:04:27.418Z,16.88
2023-05-17T07:06:54.093Z,16.44
2023-05-17T07:09:21.720Z,16.04
2023-05-17T07:11:48.297Z,15.74
2023-05-17T07:14:14.987Z,15.78
2023-05-17T07:16:41.518Z,15.83
2023-05-17T07:19:08.142Z,15.65
2023-05-17T07:21:34.806Z,16.02
2023-05-17T07:24:01.676Z,16.44
2023-05-17T07:26:28.221Z,16.65
2023-05-17T07:28:54.797Z,16.82
2023-05-17T07:31:21.299Z,16.84
2023-05-17T07:33:47.856Z,17.25
2023-05-17T07:36:14.459Z,17.14
2023-05-17T07:38:41.035Z,17.26
2023-05-17T07:41:09.825Z,18.15
2023-05-17T07:43:37.781Z,18.98
2023-05-17T07:46:04.477Z,19.65
2023-05-17T07:48:31.191Z,19.47
2023-05-17T07:50:57.773Z,19.48
2023-05-17T07:53:24.349Z,20.02
2023-05-17T07:55:51.005Z,20.53
2023-05-17T07:58:17.629Z,21.31
2023-05-17T08:00:44.161Z,21.37
2023-05-17T08:03:10.832Z,21.62
2023-05-17T08:05:37.452Z,21.45
2023-05-17T08:08:04.063Z,21.30
2023-05-17T08:10:30.545Z,21.79
2023-05-17T08:12:57.174Z,22.00
2023-05-17T08:15:23.720Z,22.50
2023-05-17T08:17:50.315Z,21.32
2023-05-17T08:20:17.553Z,19.46
2023-05-17T08:22:44.201Z,18.89
2023-05-17T08:25:10.841Z,19.02
2023-05-17T08:27:38.065Z,18.73
2023-05-17T08:30:09.033Z,18.61
2023-05-17T08:32:38.112Z,18.91
2023-05-17T08:35:05.119Z,18.77
2023-05-17T08:37:31.598Z,18.74
2023-05-17T08:39:58.251Z,18.64
2023-05-17T08:42:27.677Z,18.58
2023-05-17T08:44:55.042Z,18.53
2023-05-17T08:47:33.205Z,18.81
2023-05-17T08:50:00.927Z,18.57
2023-05-17T08:52:31.199Z,18.63
2023-05-17T08:55:00.973Z,20.05
2023-05-17T08:57:28.793Z,19.60
2023-05-17T08:59:55.936Z,19.61
2023-05-17T09:02:23.456Z,19.70
2023-05-17T09:04:55.657Z,19.09
2023-05-17T09:07:23.136Z,18.19
2023-05-17T09:09:54.017Z,18.01
2023-05-17T09:12:23.402Z,18.65
2023-05-17T09:14:51.469Z,18.64
2023-05-17T09:17:20.536Z,18.86
2023-05-17T09:19:48.893Z,18.58
2023-05-17T09:22:18.364Z,18.44
2023-05-17T09:24:45.344Z,18.02
2023-05-17T09:27:17.365Z,17.99
2023-05-17T09:29:47.909Z,17.42
2023-05-17T09:32:16.955Z,17.89
2023-05-17T09:34:45.849Z,18.31
2023-05-17T09:37:14.480Z,20.14
2023-05-17T09:39:41.567Z,19.53
2023-05-17T09:42:09.549Z,20.24
2023-05-17T09:45:09.008Z,19.60
2023-05-17T09:47:35.767Z,19.60
2023-05-17T09:50:04.803Z,19.21
2023-05-17T09:52:35.269Z,18.66
2023-05-17T09:55:01.890Z,18.19
2023-05-17T09:57:36.964Z,18.21
2023-05-17T10:00:09.598Z,18.29
2023-05-17T10:02:37.277Z,18.14
2023-05-17T10:05:11.326Z,19.42
2023-05-17T10:07:38.633Z,19.28
2023-05-17T10:10:06.689Z,18.73
2023-05-17T10:12:36.145Z,19.05
2023-05-17T10:15:03.463Z,19.99
2023-05-17T10:17:30.526Z,20.06
2023-05-17T10:19:58.453Z,19.50
2023-05-17T10:22:27.227Z,19.75
2023-05-17T10:24:53.850Z,20.13
2023-05-17T10:27:20.904Z,21.57
2023-05-17T10:29:50.404Z,20.97
2023-05-17T10:32:19.627Z,21.17
2023-05-17T10:34:54.467Z,21.56
2023-05-17T10:37:29.334Z,22.10
2023-05-17T10:39:57.079Z,22.91
2023-05-17T10:42:25.080Z,22.47
2023-05-17T10:44:54.578Z,22.44
2023-05-17T10:47:21.554Z,21.43
2023-05-17T10:49:50.137Z,21.00
2023-05-17T10:52:23.744Z,20.51
2023-05-17T10:54:50.679Z,19.85
2023-05-17T10:57:22.381Z,19.63
2023-05-17T11:00:00.435Z,20.14
2023-05-17T11:02:28.798Z,19.69
2023-05-17T11:05:00.388Z,19.39
2023-05-17T11:07:32.772Z,19.66
2023-05-17T11:10:08.570Z,19.79
2023-05-17T11:12:42.907Z,19.93
2023-05-17T11:15:16.554Z,19.81
2023-05-17T11:17:43.038Z,19.46
2023-05-17T11:20:16.856Z,19.08
2023-05-17T11:22:50.702Z,18.97
2023-05-17T11:25:17.343Z,18.86
2023-05-17T11:27:49.493Z,18.83
2023-05-17T11:30:20.692Z,18.95
2023-05-17T11:32:50.001Z,18.95
2023-05-17T11:35:24.053Z,18.64
2023-05-17T11:37:53.821Z,18.54
2023-05-17T11:40:30.346Z,18.56
2023-05-17T11:43:31.096Z,18.67
2023-05-17T11:46:01.455Z,18.65
2023-05-17T11:48:30.149Z,18.65
2023-05-17T11:50:57.725Z,18.60
2023-05-17T11:53:25.748Z,18.76
2023-05-17T11:55:52.954Z,18.22
2023-05-17T11:58:24.185Z,18.21
2023-05-17T12:00:55.538Z,19.38
2023-05-17T12:03:26.961Z,20.19
2023-05-17T12:06:09.943Z,19.30
2023-05-17T12:08:38.687Z,19.25
2023-05-17T12:11:06.829Z,19.45
2023-05-17T12:13:35.862Z,19.44
2023-05-17T12:16:11.355Z,20.78
2023-05-17T12:18:40.286Z,21.57
2023-05-17T12:21:08.378Z,22.65
2023-05-17T12:23:47.813Z,22.25
2023-05-17T12:26:23.530Z,21.88
2023-05-17T12:28:59.847Z,22.56
2023-05-17T12:31:33.432Z,22.03
2023-05-17T12:34:02.578Z,21.11
2023-05-17T12:36:30.524Z,21.03
2023-05-17T12:38:57.629Z,22.09
2023-05-17T12:41:28.768Z,22.46
2023-05-17T12:44:06.098Z,23.05
2023-05-17T12:46:40.189Z,23.07
2023-05-17T12:49:08.599Z,23.53
2023-05-17T12:51:43.649Z,22.56
2023-05-17T12:54:11.923Z,21.88
2023-05-17T12:56:42.749Z,20.95
2023-05-17T12:59:16.829Z,19.95
2023-05-17T13:01:45.557Z,20.66
2023-05-17T13:04:13.475Z,20.94
2023-05-17T13:06:50.972Z,21.34
2023-05-17T13:09:19.269Z,20.49
2023-05-17T13:11:53.588Z,20.27
2023-05-17T13:14:47.051Z,19.52
2023-05-17T13:17:25.695Z,19.12
2023-05-17T13:19:52.929Z,19.36
2023-05-17T13:22:19.499Z,19.22
2023-05-17T13:24:46.066Z,18.64
2023-05-17T13:27:12.695Z,18.50
2023-05-17T13:29:41.754Z,18.49
2023-05-17T13:32:09.820Z,18.35
2023-05-17T13:34:36.821Z,18.17
2023-05-17T13:37:04.533Z,18.51
2023-05-17T13:39:31.171Z,19.78
2023-05-17T13:41:57.935Z,20.76
2023-05-17T13:44:24.822Z,20.82
2023-05-17T13:46:51.435Z,19.55
2023-05-17T13:49:18.395Z,19.47
2023-05-17T13:51:45.146Z,19.51
2023-05-17T13:54:11.874Z,19.41
2023-05-17T13:56:38.668Z,19.42
2023-05-17T13:59:05.532Z,19.52
2023-05-17T14:01:32.039Z,19.68
2023-05-17T14:04:00.593Z,19.36
2023-05-17T14:06:27.606Z,19.41
2023-05-17T14:08:55.943Z,19.26
2023-05-17T14:11:22.811Z,19.09
2023-05-17T14:13:49.473Z,18.43
2023-05-17T14:16:16.235Z,18.69
2023-05-17T14:18:43.245Z,18.63
2023-05-17T14:21:10.062Z,18.70
2023-05-17T14:23:36.761Z,18.12
2023-05-17T14:26:07.132Z,18.13
2023-05-17T14:28:36.337Z,18.42
2023-05-17T14:31:02.977Z,19.16
2023-05-17T14:33:29.563Z,18.83
2023-05-17T14:35:56.171Z,18.89
2023-05-17T14:38:23.231Z,18.98
2023-05-17T14:40:49.804Z,18.54
2023-05-17T14:43:16.757Z,18.54
2023-05-17T14:45:43.351Z,18.16
2023-05-17T14:48:09.993Z,17.78
2023-05-17T14:50:36.839Z,17.92
2023-05-17T14:53:03.372Z,17.90
2023-05-17T14:55:30.126Z,18.04
2023-05-17T14:57:57.999Z,18.04
2023-05-17T15:00:25.405Z,17.94
2023-05-17T15:02:51.948Z,18.08
2023-05-17T15:05:18.615Z,17.89
2023-05-17T15:07:45.207Z,17.70
2023-05-17T15:10:13.083Z,17.64
2023-05-17T15:12:39.610Z,17.21
2023-05-17T15:15:06.857Z,17.43
2023-05-17T15:17:33.887Z,17.39
2023-05-17T15:20:00.659Z,17.71
2023-05-17T15:22:27.186Z,17.57
2023-05-17T15:24:54.355Z,17.41
2023-05-17T15:27:21.061Z,16.94
2023-05-17T15:29:47.604Z,17.21
2023-05-17T15:32:14.286Z,17.37
2023-05-17T15:34:41.234Z,17.26
2023-05-17T15:37:07.747Z,17.33
2023-05-17T15:39:34.248Z,17.36
2023-05-17T15:42:00.981Z,17.48
2023-05-17T15:44:27.490Z,17.65
2023-05-17T15:46:53.963Z,17.61
2023-05-17T15:49:20.617Z,16.64
2023-05-17T15:51:47.220Z,16.66
2023-05-17T15:54:14.798Z,16.75
2023-05-17T15:56:42.054Z,16.70
2023-05-17T15:59:08.625Z,16.66
2023-05-17T16:01:35.617Z,16.62
2023-05-17T16:04:02.157Z,16.37
2023-05-17T16:06:34.782Z,16.62
2023-05-17T16:09:02.297Z,16.47
2023-05-17T16:11:29.144Z,16.36
2023-05-17T16:13:56.903Z,16.24
2023-05-17T16:16:23.398Z,16.23
2023-05-17T16:18:49.969Z,16.14
2023-05-17T16:21:16.907Z,15.95
2023-05-17T16:23:43.555Z,16.22
2023-05-17T16:26:10.189Z,16.35
2023-05-17T16:28:36.970Z,15.94
2023-05-17T16:31:05.498Z,15.84
2023-05-17T16:33:32.184Z,15.83
2023-05-17T16:35:58.977Z,15.89
2023-05-17T16:38:26.181Z,15.72
2023-05-17T16:40:52.708Z,15.69
2023-05-17T16:43:19.287Z,15.72
2023-05-17T16:45:46.393Z,15.78
2023-05-17T16:48:14.269Z,15.94
2023-05-17T16:50:41.965Z,16.03
2023-05-17T16:53:08.754Z,15.87
2023-05-17T16:55:36.315Z,16.00
2023-05-17T16:58:03.269Z,15.69
2023-05-17T17:00:30.163Z,15.38
2023-05-17T17:02:58.402Z,15.39
2023-05-17T17:05:25.114Z,15.58
2023-05-17T17:07:51.652Z,15.47
2023-05-17T17:10:20.020Z,15.35
2023-05-17T17:12:47.321Z,15.35
2023-05-17T17:15:14.135Z,15.27
2023-05-17T17:17:40.700Z,15.39
2023-05-17T17:20:09.070Z,15.06
2023-05-17T17:22:36.005Z,15.18
2023-05-17T17:25:02.690Z,15.06
2023-05-17T17:27:29.253Z,15.15
2023-05-17T17:29:55.906Z,15.24
2023-05-17T17:32:22.531Z,15.35
2023-05-17T17:34:49.091Z,15.31
2023-05-17T17:37:15.611Z,15.25
2023-05-17T17:39:42.183Z,15.33
2023-05-17T17:42:09.954Z,15.33
2023-05-17T17:44:36.563Z,15.36
2023-05-17T17:47:03.251Z,15.41
2023-05-17T17:49:30.160Z,15.38
2023-05-17T17:51:58.098Z,15.33
2023-05-17T17:54:24.724Z,15.00
2023-05-17T17:56:51.261Z,15.02
2023-05-17T17:59:17.840Z,14.96
2023-05-17T18:01:44.623Z,14.96
2023-05-17T18:04:13.544Z,15.07
2023-05-17T18:06:41.882Z,14.87
2023-05-17T18:09:08.769Z,14.82
2023-05-17T18:11:35.405Z,14.80
2023-05-17T18:14:02.635Z,14.76
2023-05-17T18:16:29.440Z,14.73
2023-05-17T18:18:56.359Z,14.73
2023-05-17T18:21:23.421Z,14.59
2023-05-17T18:23:50.118Z,14.46
2023-05-17T18:26:16.589Z,14.44
2023-05-17T18:28:43.321Z,14.50
2023-05-17T18:31:10.615Z,14.44
2023-05-17T18:33:37.201Z,14.42
2023-05-17T18:36:03.933Z,14.46
2023-05-17T18:38:30.570Z,14.47
2023-05-17T18:40:57.194Z,14.51
2023-05-17T18:43:23.797Z,14.53
2023-05-17T18:45:51.241Z,14.54
2023-05-17T18:48:18.048Z,14.67
2023-05-17T18:50:44.911Z,14.82
2023-05-17T18:53:12.877Z,14.94
2023-05-17T18:55:39.672Z,14.89
2023-05-17T18:58:06.219Z,14.80
2023-05-17T19:00:33.561Z,14.56
2023-05-17T19:03:00.262Z,14.59
2023-05-17T19:05:26.913Z,14.56
2023-05-17T19:07:53.419Z,14.57
2023-05-17T19:10:20.797Z,14.54
2023-05-17T19:12:47.500Z,14.48
2023-05-17T19:15:14.126Z,14.39
2023-05-17T19:17:40.794Z,14.30
2023-05-17T19:20:08.276Z,14.14
2023-05-17T19:22:35.882Z,14.12
2023-05-17T19:25:02.622Z,14.10
2023-05-17T19:27:29.730Z,14.15
2023-05-17T19:29:56.368Z,14.07
2023-05-17T19:32:22.992Z,13.87
2023-05-17T19:34:49.936Z,13.92
2023-05-17T19:37:16.703Z,13.74
2023-05-17T19:39:43.330Z,13.65
2023-05-17T19:42:09.914Z,13.64
2023-05-17T19:44:36.417Z,13.69
2023-05-17T19:47:02.979Z,13.63
2023-05-17T19:49:29.598Z,13.70
2023-05-17T19:52:00.545Z,13.66
2023-05-17T19:54:30.542Z,13.70
2023-05-17T19:56:58.141Z,13.59
2023-05-17T19:59:24.754Z,13.56
2023-05-17T20:01:51.304Z,13.64
2023-05-17T20:04:17.949Z,13.44
2023-05-17T20:06:44.749Z,13.53
2023-05-17T20:09:11.532Z,13.60
2023-05-17T20:11:38.184Z,13.44
2023-05-17T20:14:04.776Z,13.53
2023-05-17T20:16:31.416Z,13.43
2023-05-17T20:18:58.534Z,13.50
2023-05-17T20:21:26.427Z,13.56
2023-05-17T20:24:00.733Z,13.36
2023-05-17T20:26:31.741Z,13.35
2023-05-17T20:28:59.138Z,13.40
2023-05-17T20:31:26.240Z,13.33
2023-05-17T20:33:53.435Z,13.39
2023-05-17T20:36:20.032Z,13.23
2023-05-17T20:38:46.603Z,13.22
2023-05-17T20:41:14.937Z,13.24
2023-05-17T20:43:45.265Z,13.24
2023-05-17T20:46:13.236Z,13.27
2023-05-17T20:48:42.990Z,13.00
2023-05-17T20:51:10.475Z,13.24
2023-05-17T20:53:37.720Z,13.04
2023-05-17T20:56:04.724Z,12.95
2023-05-17T20:58:31.462Z,12.87
2023-05-17T21:00:59.959Z,12.83
2023-05-17T21:03:33.218Z,12.68
2023-05-17T21:06:05.137Z,12.60
2023-05-17T21:08:32.871Z,12.60
2023-05-17T21:10:59.621Z,12.58
2023-05-17T21:13:26.634Z,12.54
2023-05-17T21:15:56.565Z,12.53
2023-05-17T21:18:23.781Z,12.42
2023-05-17T21:20:51.465Z,12.35
2023-05-17T21:23:18.761Z,12.20
2023-05-17T21:25:45.449Z,12.30
2023-05-17T21:28:12.004Z,12.31
2023-05-17T21:30:38.663Z,12.28
2023-05-17T21:33:05.714Z,12.22
2023-05-17T21:35:32.634Z,12.04
2023-05-17T21:37:59.301Z,12.17
2023-05-17T21:40:25.979Z,11.91
2023-05-17T21:42:52.494Z,11.74
2023-05-17T21:45:19.107Z,11.86
2023-05-17T21:47:45.654Z,11.94
2023-05-17T21:50:12.289Z,11.88
2023-05-17T21:52:38.802Z,11.72
2023-05-17T21:55:06.003Z,11.71
2023-05-17T21:57:36.140Z,11.59
2023-05-17T22:00:05.854Z,11.60
2023-05-17T22:02:35.203Z,11.40
2023-05-17T22:05:02.238Z,11.35
2023-05-17T22:07:28.820Z,11.30
2023-05-17T22:09:55.409Z,11.20
2023-05-17T22:12:25.448Z,11.25
2023-05-17T22:14:54.249Z,11.08
2023-05-17T22:17:35.192Z,10.99
2023-05-17T22:20:11.394Z,11.00
2023-05-17T22:22:38.227Z,10.82
2023-05-17T22:25:05.444Z,10.63
2023-05-17T22:27:31.968Z,10.68
2023-05-17T22:29:58.533Z,10.80
2023-05-17T22:32:25.122Z,10.74
2023-05-17T22:34:52.879Z,10.55
2023-05-17T22:37:22.488Z,10.55
2023-05-17T22:39:49.157Z,10.51
2023-05-17T22:42:15.813Z,10.51
2023-05-17T22:44:42.501Z,10.26
2023-05-17T22:47:09.304Z,10.17
2023-05-17T22:49:35.940Z,10.21
2023-05-17T22:52:05.766Z,10.11
2023-05-17T22:54:33.497Z,10.13
2023-05-17T22:57:01.221Z,10.19
2023-05-17T22:59:28.995Z,10.23
2023-05-17T23:01:55.668Z,10.12
2023-05-17T23:04:26.183Z,10.07
2023-05-17T23:06:54.002Z,9.97
2023-05-17T23:09:23.739Z,9.97
2023-05-17T23:11:50.367Z,9.91
2023-05-17T23:14:17.478Z,9.86
2023-05-17T23:16:44.096Z,9.88
2023-05-17T23:19:10.625Z,9.70
2023-05-17T23:21:37.476Z,9.50
2023-05-17T23:24:04.229Z,9.43
2023-05-17T23:26:30.853Z,9.54
2023-05-17T23:28:57.380Z,9.52
2023-05-17T23:31:25.641Z,9.47
2023-05-17T23:33:52.688Z,9.44
2023-05-17T23:36:21.678Z,9.56
2023-05-17T23:38:48.203Z,9.56
2023-05-17T23:41:18.194Z,9.50
2023-05-17T23:43:45.507Z,9.44
2023-05-17T23:46:13.706Z,9.33
2023-05-17T23:48:40.326Z,9.33
2023-05-17T23:51:06.940Z,9.50
2023-05-17T23:53:34.133Z,9.51
2023-05-17T23:56:01.127Z,9.65
2023-05-17T23:58:27.586Z,9.55
